Flight Track Log - Related Links

Times and Time Zones

All times are in EDT time to prevent confusion due to time zone crossing. See the FLG3862 flight status page for this flight to view local times or setup timezone preferences in your user account.

Time Position Orientation Groundspeed Altitude Reporting Facility
EDT Latitude Longitude Course Direction KTS MPH feet Rate Location/Type
Sun 10:36:39 AM 42.2036 -83.3556 71° East 151 174 1,400  Level Cleveland Center
Sun 10:38:17 AM 42.1122 -83.3431 174° South 250 288 6,100 2,445 Climbing Cleveland Center
Sun 10:39:00 AM 42.2934 -82.8666 75° East  Level FlightAware Approximate
Sun 10:40:00 AM 42.3212 -82.7045 82° East  Level FlightAware Approximate
Sun 10:40:10 AM 42.0661 -83.1817 111° Southeast 322 371 10,000  Level Cleveland Center
Sun 10:41:00 AM 42.3439 -82.5411 71° East  Level FlightAware Approximate
Sun 10:41:10 AM 42.1164 -83.0661 60° Northeast 322 371 10,500  Level Cleveland Center
Sun 10:42:10 AM 42.1692 -82.9392 61° Northeast 353 406 13,100 2,550 Climbing Cleveland Center
Sun 10:43:10 AM 42.2219 -82.8094 61° Northeast 375 432 15,600 2,500 Climbing Cleveland Center
Sun 10:44:10 AM 42.2764 -82.6767 61° Northeast 386 444 18,100 2,500 Climbing Cleveland Center
Sun 10:45:10 AM 42.3286 -82.5519 60° Northeast 386 444 20,600 2,150 Climbing Cleveland Center
Sun 10:46:10 AM 42.3664 -82.4125 70° East 386 444 22,400 1,300 Climbing Cleveland Center
Sun 10:47:10 AM 42.3583 -82.2522 94° East 389 448 23,200 850 Climbing Cleveland Center
Sun 10:48:10 AM 42.3525 -82.0864 93° East 408 470 24,100 850 Climbing Cleveland Center
Sun 10:49:10 AM 42.3461 -81.9175 93° East 444 511 24,900 800 Climbing Cleveland Center
Sun 10:50:10 AM 42.3375 -81.7433 94° East 466 536 25,700 800 Climbing Cleveland Center
Sun 10:51:10 AM 42.3308 -81.5661 93° East 466 536 26,500 750 Climbing Cleveland Center
Sun 10:52:10 AM 42.3217 -81.4089 94° East 466 536 27,200 750 Climbing Cleveland Center
Sun 10:53:10 AM 42.3125 -81.2344 94° East 466 536 28,000 800 Climbing Cleveland Center
Sun 10:54:10 AM 42.3050 -81.0575 93° East 466 536 28,800 700 Climbing Cleveland Center
Sun 10:55:10 AM 42.2953 -80.8808 94° East 472 543 29,400 600 Climbing Cleveland Center
Sun 10:56:10 AM 42.2850 -80.6842 94° East 472 543 30,000 600 Climbing Cleveland Center
Sun 10:57:10 AM 42.2767 -80.4989 93° East 487 560 30,600 500 Climbing Cleveland Center
Sun 10:58:10 AM 42.2639 -80.3139 95° East 487 560 31,000 200 Climbing Cleveland Center
Sun 10:59:10 AM 42.2531 -80.1286 94° East 492 566 31,000  Level Cleveland Center
Sun 11:00:10 AM 42.2439 -79.9436 94° East 497 572 31,000  Level Cleveland Center
Sun 11:01:10 AM 42.2322 -79.7531 95° East 502 578 31,000  Level Cleveland Center
Sun 11:02:10 AM 42.2222 -79.5683 94° East 502 578 31,000  Level Cleveland Center
Sun 11:03:10 AM 42.2686 -79.3878 71° East 489 563 31,000  Level Cleveland Center
Sun 11:04:10 AM 42.3375 -79.2153 62° Northeast 497 572 31,000  Level Cleveland Center
Sun 11:05:10 AM 42.4083 -79.0478 60° Northeast 497 572 31,000  Level Cleveland Center
Sun 11:06:10 AM 42.4728 -78.8914 61° Northeast 515 593 31,000  Level Cleveland Center
Sun 11:07:10 AM 42.5433 -78.7233 60° Northeast 515 593 31,000  Level Cleveland Center
Sun 11:08:10 AM 42.6153 -78.5519 60° Northeast 515 593 31,000  Level Cleveland Center
Sun 11:09:10 AM 42.6872 -78.3800 60° Northeast 515 593 31,000  Level Cleveland Center
Sun 11:10:10 AM 42.7589 -78.2078 60° Northeast 515 593 31,000  Level Cleveland Center
Sun 11:11:10 AM 42.8281 -78.0353 61° Northeast 515 593 31,000  Level Cleveland Center
Sun 11:12:10 AM 42.8992 -77.8653 60° Northeast 515 593 31,000  Level Cleveland Center
Sun 11:13:10 AM 42.9700 -77.6919 61° Northeast 515 593 31,000  Level Cleveland Center
Sun 11:14:10 AM 43.0428 -77.5150 61° Northeast 515 593 31,000  Level Cleveland Center
Sun 11:15:50 AM 43.1611 -77.2203 61° Northeast 513 590 31,000  Level Boston Center
Sun 11:16:50 AM 43.2328 -77.0433 61° Northeast 520 598 31,000  Level Boston Center
Sun 11:17:50 AM 43.3025 -76.8658 62° Northeast 520 598 31,000  Level Boston Center
Sun 11:18:50 AM 43.3717 -76.6881 62° Northeast 525 604 31,000  Level Boston Center
Sun 11:19:50 AM 43.4369 -76.5036 64° Northeast 530 610 31,000  Level Boston Center
Sun 11:20:50 AM 43.4975 -76.3189 66° East 525 604 31,000  Level Boston Center
Sun 11:21:50 AM 43.5581 -76.1306 66° East 525 604 31,000 -350 Level Boston Center
Sun 11:22:50 AM 43.6203 -75.9422 65° Northeast 525 604 30,300 -1,100 Descending Boston Center
Sun 11:23:50 AM 43.6867 -75.7364 66° East 530 610 28,800 -1,450 Descending Boston Center
Sun 11:24:50 AM 43.7483 -75.5442 66° East 530 610 27,400 -1,450 Descending Boston Center
Sun 11:25:50 AM 43.8053 -75.3603 67° East 530 610 25,900 -1,500 Descending Boston Center
Sun 11:26:50 AM 43.8619 -75.1786 67° East 530 610 24,400 -1,500 Descending Boston Center
Sun 11:27:50 AM 43.9183 -74.9967 67° East 523 602 22,900 -1,550 Descending Boston Center
Sun 11:28:50 AM 43.9719 -74.8200 67° East 509 586 21,300 -1,550 Descending Boston Center
Sun 11:29:50 AM 44.0233 -74.6489 67° East 491 565 19,800 -1,150 Descending Boston Center
Sun 11:30:50 AM 44.0744 -74.4831 67° East 478 550 19,000 -400 Descending Boston Center
Sun 11:31:50 AM 44.1272 -74.3144 66° East 468 539 19,000 -727 Level Boston Center
Sun 11:33:02 AM 44.1778 -74.1481 67° East 468 539 17,400 -1,500 Descending Boston Center
Sun 11:34:02 AM 44.2347 -73.9614 67° East 462 532 15,700 -1,600 Descending Boston Center
Sun 11:35:02 AM 44.2803 -73.8058 68° East 443 510 14,200 -1,500 Descending Boston Center
Sun 11:36:02 AM 44.3111 -73.6672 73° East 423 487 12,700 -1,500 Descending Boston Center
Sun 11:37:02 AM 44.3353 -73.5228 77° East 394 453 11,200 -1,350 Descending Boston Center
Sun 11:38:02 AM 44.3572 -73.3983 76° East 353 406 10,000 -1,800 Descending Boston Center
Sun 11:39:02 AM 44.3436 -73.2761 99° East 290 334 7,600 -2,000 Descending Boston Center
Sun 11:40:02 AM 44.3278 -73.1686 102° East 285 328 6,000 -1,650 Descending Boston Center
Sun 11:41:02 AM 44.3325 -73.0697 86° East 271 312 4,300 -1,700 Descending Boston Center

Login

Don't have an account? Register now (free) for customized features, flight alerts, and more!